Time;durP1;ratioP1;P1;durP2;ratioP2;P2;SDS_P1;SDS_P2;PMS_P1;PMS_P2;Temp;Humidity;BMP_temperature;BMP_pressure;BME280_temperature;BME280_humidity;BME280_pressure;Samples;Min_cycle;Max_cycle;Signal;HPM_P1;HPM_P2
2022/04/29 00:00:41;;;;;;;;;;;;;;;21.49;34.54;96637.09;10387145;28;1831;-44
2022/04/29 00:05:42;;;;;;;;;;;;;;;21.52;34.65;96626.00;10384540;28;1965;-44
2022/04/29 00:10:43;;;;;;;;;;;;;;;21.53;34.58;96630.25;10385085;28;1759;-44
2022/04/29 00:15:43;;;;;;;;;;;;;;;21.54;34.91;96621.25;10394754;28;1871;-46
2022/04/29 00:20:44;;;;;;;;;;;;;;;21.56;34.87;96619.16;10375073;28;1835;-44
2022/04/29 00:25:44;;;;;;;;;;;;;;;21.57;34.56;96618.13;10397191;28;1963;-46
2022/04/29 00:30:45;;;;;;;;;;;;;;;21.60;34.51;96620.22;10393768;28;1891;-46
2022/04/29 00:35:45;;;;;;;;;;;;;;;21.59;34.44;96616.81;10381032;28;1797;-47
2022/04/29 00:40:46;;;;;;;;;;;;;;;21.61;34.47;96613.91;10395240;28;2019;-45
2022/04/29 00:45:47;;;;;;;;;;;;;;;21.63;34.58;96606.53;10389456;28;1918;-44
2022/04/29 00:50:47;;;;;;;;;;;;;;;21.62;34.58;96603.09;10389869;28;1894;-43
2022/04/29 00:55:47;;;;;;;;;;;;;;;21.67;34.57;96597.03;10386222;28;1891;-45
2022/04/29 01:00:48;;;;;;;;;;;;;;;21.64;34.65;96600.19;10387906;28;1854;-43
2022/04/29 01:05:49;;;;;;;;;;;;;;;21.63;34.47;96588.84;10403118;28;1977;-46
2022/04/29 01:10:49;;;;;;;;;;;;;;;21.67;34.19;96583.84;10371713;28;1859;-45
2022/04/29 01:15:51;;;;;;;;;;;;;;;21.67;34.37;96575.94;10392763;28;1824;-44
2022/04/29 01:21:01;;;;;;;;;;;;;;;21.70;34.42;96575.44;10383880;28;1852;-46
2022/04/29 01:26:02;;;;;;;;;;;;;;;21.71;34.29;96571.72;10389720;28;1952;-48
2022/04/29 01:31:03;;;;;;;;;;;;;;;21.68;34.38;96572.22;10391466;28;1931;-44
2022/04/29 01:36:03;;;;;;;;;;;;;;;21.72;34.35;96570.69;10404370;28;1975;-45
2022/04/29 01:41:07;;;;;;;;;;;;;;;21.68;34.27;96578.31;10382985;28;2118;-44
2022/04/29 01:46:08;;;;;;;;;;;;;;;21.68;34.19;96561.66;10382673;28;1974;-47
2022/04/29 01:51:09;;;;;;;;;;;;;;;21.68;34.26;96578.31;10381505;28;1903;-45
2022/04/29 01:56:09;;;;;;;;;;;;;;;21.67;34.16;96565.38;10399226;28;1945;-46
2022/04/29 02:01:10;;;;;;;;;;;;;;;21.65;34.30;96567.47;10377552;28;1923;-43
2022/04/29 02:06:10;;;;;;;;;;;;;;;21.60;34.51;96562.97;10406910;28;1880;-42
2022/04/29 02:11:12;;;;;;;;;;;;;;;21.59;34.51;96555.34;10404581;28;1922;-45
2022/04/29 02:16:12;;;;;;;;;;;;;;;21.57;34.52;96552.97;10404614;28;1917;-46
2022/04/29 02:21:13;;;;;;;;;;;;;;;21.57;34.54;96545.06;10398242;28;1981;-46
2022/04/29 02:26:13;;;;;;;;;;;;;;;21.58;34.59;96541.34;10377101;28;1902;-47
2022/04/29 02:31:13;;;;;;;;;;;;;;;21.57;34.24;96544.25;10376064;28;2019;-43
2022/04/29 02:36:14;;;;;;;;;;;;;;;21.56;34.33;96542.66;10375967;28;2046;-42
2022/04/29 02:41:15;;;;;;;;;;;;;;;21.55;34.32;96539.25;10376940;28;1906;-45
2022/04/29 02:46:16;;;;;;;;;;;;;;;21.55;34.31;96541.88;10365217;28;1899;-47
2022/04/29 02:51:16;;;;;;;;;;;;;;;21.57;34.28;96536.34;10382981;28;1899;-43
2022/04/29 02:56:17;;;;;;;;;;;;;;;21.57;34.19;96531.84;10397411;28;1790;-47
2022/04/29 03:01:17;;;;;;;;;;;;;;;21.57;34.04;96528.41;10377602;28;1950;-45
2022/04/29 03:06:19;;;;;;;;;;;;;;;21.56;34.11;96513.63;10381529;28;1891;-47
2022/04/29 03:11:19;;;;;;;;;;;;;;;21.58;34.04;96508.88;10393828;28;1998;-46
2022/04/29 03:16:20;;;;;;;;;;;;;;;21.59;34.12;96502.56;10400747;28;1926;-46
2022/04/29 03:21:20;;;;;;;;;;;;;;;21.58;33.89;96507.03;10399659;28;1906;-44
2022/04/29 03:26:21;;;;;;;;;;;;;;;21.59;33.95;96513.13;10401676;28;1863;-44
2022/04/29 03:31:21;;;;;;;;;;;;;;;21.57;33.98;96504.69;10399912;28;1944;-44
2022/04/29 03:36:22;;;;;;;;;;;;;;;21.60;33.76;96507.56;10401157;28;1859;-46
2022/04/29 03:41:22;;;;;;;;;;;;;;;21.58;33.84;96504.41;10399922;28;2125;-44
2022/04/29 03:46:23;;;;;;;;;;;;;;;21.59;33.78;96510.47;10401446;28;1919;-44
2022/04/29 03:51:23;;;;;;;;;;;;;;;21.58;33.84;96508.88;10383862;28;1930;-45
2022/04/29 03:56:25;;;;;;;;;;;;;;;21.58;33.96;96511.53;10386802;28;1908;-45
2022/04/29 04:01:27;;;;;;;;;;;;;;;21.55;33.93;96504.94;10373796;28;1938;-44
2022/04/29 04:11:50;;;;;;;;;;;;;;;21.57;33.79;96513.38;10392776;28;2022;-42
2022/04/29 04:16:51;;;;;;;;;;;;;;;21.59;34.00;96516.56;10388927;28;1961;-46
2022/04/29 04:21:52;;;;;;;;;;;;;;;21.59;33.92;96518.41;10393079;28;1943;-47
2022/04/29 04:26:52;;;;;;;;;;;;;;;21.60;34.13;96535.81;10396494;28;1933;-46
2022/04/29 04:31:53;;;;;;;;;;;;;;;21.58;33.90;96536.06;10394745;28;1927;-44
2022/04/29 04:36:54;;;;;;;;;;;;;;;21.58;34.10;96545.81;10390672;28;1919;-45
2022/04/29 04:41:54;;;;;;;;;;;;;;;21.58;34.10;96543.19;10376782;28;1985;-46
2022/04/29 04:46:55;;;;;;;;;;;;;;;21.57;34.14;96547.69;10354995;28;1906;-45
2022/04/29 04:51:55;;;;;;;;;;;;;;;21.57;33.86;96547.69;10392445;28;2005;-47
2022/04/29 04:56:55;;;;;;;;;;;;;;;21.56;33.93;96550.56;10380521;28;1849;-45
2022/04/29 05:01:56;;;;;;;;;;;;;;;21.56;33.75;96543.44;10403666;28;1919;-46
2022/04/29 05:06:56;;;;;;;;;;;;;;;21.52;33.81;96546.88;10378226;28;1966;-45
2022/04/29 05:11:57;;;;;;;;;;;;;;;21.50;33.87;96546.34;10402282;28;1925;-43
2022/04/29 05:16:57;;;;;;;;;;;;;;;21.47;33.67;96549.50;10388011;28;1930;-44
2022/04/29 05:21:58;;;;;;;;;;;;;;;21.43;33.63;96543.94;10370459;28;1922;-44
2022/04/29 05:26:59;;;;;;;;;;;;;;;21.43;33.30;96546.56;10378336;28;1976;-47
2022/04/29 05:31:59;;;;;;;;;;;;;;;21.41;33.71;96548.69;10379019;28;1848;-43
2022/04/29 05:37:00;;;;;;;;;;;;;;;20.62;30.93;96542.78;10384209;28;1520;-45
2022/04/29 05:42:18;;;;;;;;;;;;;;;19.61;30.77;96535.06;10403203;28;1997;-43
2022/04/29 05:47:18;;;;;;;;;;;;;;;19.23;31.18;96536.75;10365513;28;1950;-46
2022/04/29 05:52:19;;;;;;;;;;;;;;;19.82;31.91;96542.13;10382671;28;1924;-46
2022/04/29 05:57:20;;;;;;;;;;;;;;;20.20;32.56;96553.28;10370847;28;2028;-48
2022/04/29 06:02:23;;;;;;;;;;;;;;;20.44;32.15;96555.56;10408554;28;1973;-43
2022/04/29 06:07:24;;;;;;;;;;;;;;;20.62;31.88;96542.78;10377765;28;1512;-43
2022/04/29 06:12:26;;;;;;;;;;;;;;;20.78;32.22;96546.28;10410226;28;1721;-44
2022/04/29 06:17:26;;;;;;;;;;;;;;;20.87;31.41;96544.75;10394294;28;2007;-44
2022/04/29 06:22:26;;;;;;;;;;;;;;;20.94;31.24;96548.72;10404985;28;2023;-43
2022/04/29 06:27:26;;;;;;;;;;;;;;;21.00;31.11;96544.28;10413906;28;1958;-45
2022/04/29 06:32:27;;;;;;;;;;;;;;;21.08;31.18;96550.94;10418413;28;1884;-44
2022/04/29 06:37:27;;;;;;;;;;;;;;;21.13;30.96;96556.22;10398891;28;1957;-43
2022/04/29 06:42:28;;;;;;;;;;;;;;;21.18;31.01;96558.91;10399017;28;1975;-43
2022/04/29 06:47:28;;;;;;;;;;;;;;;21.20;31.05;96554.16;10390549;28;1910;-43
2022/04/29 06:52:29;;;;;;;;;;;;;;;21.24;31.03;96555.22;10395737;28;2507;-45
2022/04/29 06:57:30;;;;;;;;;;;;;;;21.27;30.92;96565.28;10392516;28;1956;-43
2022/04/29 07:02:32;;;;;;;;;;;;;;;21.30;30.94;96570.00;10410696;28;1929;-47
2022/04/29 07:07:33;;;;;;;;;;;;;;;21.33;30.98;96580.06;10415685;28;1933;-43
2022/04/29 07:12:40;;;;;;;;;;;;;;;21.36;31.09;96577.69;10409262;28;1918;-45
2022/04/29 07:17:41;;;;;;;;;;;;;;;21.37;30.83;96575.84;10393352;28;1995;-44
2022/04/29 07:22:42;;;;;;;;;;;;;;;21.39;31.25;96576.38;10384448;28;1963;-45
2022/04/29 07:27:42;;;;;;;;;;;;;;;21.43;31.31;96564.25;10401434;28;1990;-44
2022/04/29 07:32:43;;;;;;;;;;;;;;;21.46;31.35;96553.97;10398301;28;2439;-46
2022/04/29 07:43:02;;;;;;;;;;;;;;;21.49;31.15;96553.47;10396528;28;1985;-43
2022/04/29 07:48:05;;;;;;;;;;;;;;;21.50;31.50;96544.50;10401079;28;2188;-46
2022/04/29 07:53:05;;;;;;;;;;;;;;;21.53;31.39;96543.19;10398184;28;2247;-44
2022/04/29 07:58:06;;;;;;;;;;;;;;;21.55;31.40;96541.09;10389667;28;2200;-45
2022/04/29 08:03:06;;;;;;;;;;;;;;;21.56;31.66;96537.38;10374968;28;2229;-47
2022/04/29 08:08:07;;;;;;;;;;;;;;;21.56;31.86;96527.63;10372786;28;2015;-43
2022/04/29 08:13:07;;;;;;;;;;;;;;;21.53;31.68;96522.88;10369751;28;1839;-42
2022/04/29 08:18:07;;;;;;;;;;;;;;;21.54;31.86;96519.19;10389468;28;1947;-45
2022/04/29 08:23:08;;;;;;;;;;;;;;;21.52;31.76;96516.00;10383680;28;1916;-48
2022/04/29 08:28:08;;;;;;;;;;;;;;;21.50;31.66;96519.94;10382475;28;1903;-44
2022/04/29 08:33:12;;;;;;;;;;;;;;;21.45;31.96;96514.69;10379314;28;1809;-43
2022/04/29 08:38:12;;;;;;;;;;;;;;;21.44;31.90;96500.69;10398781;28;1950;-48
2022/04/29 08:43:14;;;;;;;;;;;;;;;21.40;31.97;96493.56;10389956;28;1973;-42
2022/04/29 08:48:15;;;;;;;;;;;;;;;21.40;31.93;96501.47;10383940;28;1891;-45
2022/04/29 08:53:17;;;;;;;;;;;;;;;21.37;32.18;96494.88;10381979;28;2252;-47
2022/04/29 09:03:37;;;;;;;;;;;;;;;21.33;32.37;96477.97;10409777;28;1930;-45
2022/04/29 09:08:41;;;;;;;;;;;;;;;21.32;32.37;96472.97;10380508;28;1839;-42
2022/04/29 09:13:42;;;;;;;;;;;;;;;21.32;32.37;96472.97;10395720;28;1807;-43
2022/04/29 09:18:42;;;;;;;;;;;;;;;21.31;32.21;96460.84;10404086;28;1784;-46
2022/04/29 09:23:55;;;;;;;;;;;;;;;21.29;32.19;96466.38;10380947;28;1910;-50
2022/04/29 09:28:56;;;;;;;;;;;;;;;21.28;32.58;96467.44;10385208;28;1752;-45
2022/04/29 09:33:57;;;;;;;;;;;;;;;21.25;32.44;96459.22;10386959;28;1854;-44
2022/04/29 09:44:34;;;;;;;;;;;;;;;21.24;33.16;96462.94;10404463;28;1957;-45
2022/04/29 09:49:35;;;;;;;;;;;;;;;21.25;33.85;96452.13;10374178;28;1834;-45
2022/04/29 09:54:37;;;;;;;;;;;;;;;21.21;34.06;96453.69;10402528;28;1794;-44
2022/04/29 09:59:41;;;;;;;;;;;;;;;21.25;33.77;96446.84;10414478;28;1842;-46
2022/04/29 10:04:42;;;;;;;;;;;;;;;21.23;33.92;96446.31;10399342;28;1938;-45
2022/04/29 10:09:45;;;;;;;;;;;;;;;21.27;33.95;96443.97;10402134;28;1838;-41
2022/04/29 10:14:46;;;;;;;;;;;;;;;21.25;34.19;96438.94;10398375;28;1880;-44
2022/04/29 10:25:12;;;;;;;;;;;;;;;21.30;34.31;96428.41;10420443;28;1977;-46
2022/04/29 10:30:13;;;;;;;;;;;;;;;21.31;34.03;96429.22;10413501;28;1784;-43
2022/04/29 10:35:56;;;;;;;;;;;;;;;21.34;34.07;96434.75;10418123;28;1853;-48
2022/04/29 10:41:06;;;;;;;;;;;;;;;21.36;34.20;96426.56;10257618;28;1950;-43
2022/04/29 10:46:07;;;;;;;;;;;;;;;21.38;34.20;96414.69;10372143;28;1910;-45
2022/04/29 10:51:16;;;;;;;;;;;;;;;21.45;34.10;96406.53;10391845;28;1853;-43
2022/04/29 10:56:30;;;;;;;;;;;;;;;21.45;33.60;96401.25;10414981;28;1848;-45
2022/04/29 11:01:34;;;;;;;;;;;;;;;21.41;30.67;96403.63;10410111;28;1964;-43
2022/04/29 11:06:37;;;;;;;;;;;;;;;21.30;30.20;96391.50;10405178;28;1820;-43
2022/04/29 11:11:44;;;;;;;;;;;;;;;21.33;30.69;96390.94;10413234;28;1825;-48
2022/04/29 11:16:59;;;;;;;;;;;;;;;21.37;30.74;96388.59;10396547;28;1732;-46
2022/04/29 11:27:26;;;;;;;;;;;;;;;21.41;29.39;96365.91;10406198;28;1855;-44
2022/04/29 11:32:26;;;;;;;;;;;;;;;21.45;29.95;96372.25;10398239;28;1808;-44
2022/04/29 11:37:27;;;;;;;;;;;;;;;21.46;29.45;96368.53;10399660;28;1739;-43
2022/04/29 11:42:28;;;;;;;;;;;;;;;21.47;29.24;96351.69;10388111;28;1975;-42
2022/04/29 11:47:30;;;;;;;;;;;;;;;21.54;30.04;96345.06;10398821;28;1961;-44
2022/04/29 11:52:31;;;;;;;;;;;;;;;21.55;29.30;96351.94;10415799;28;1875;-42
2022/04/29 11:57:33;;;;;;;;;;;;;;;21.59;29.93;96341.66;10405854;28;1830;-47
2022/04/29 12:02:33;;;;;;;;;;;;;;;21.58;29.37;96330.28;10400131;28;1923;-45
2022/04/29 12:07:41;;;;;;;;;;;;;;;21.74;30.19;96325.81;10400303;28;1740;-42
2022/04/29 12:12:41;;;;;;;;;;;;;;;21.74;29.63;96333.72;10407120;28;1870;-44
2022/04/29 12:17:42;;;;;;;;;;;;;;;21.66;28.73;96332.38;10408860;28;1741;-47
2022/04/29 12:22:42;;;;;;;;;;;;;;;21.70;29.38;96324.75;10394549;28;1909;-48
2022/04/29 12:27:43;;;;;;;;;;;;;;;21.76;29.55;96321.03;10400902;28;1842;-45
2022/04/29 12:38:03;;;;;;;;;;;;;;;21.71;29.20;96307.84;10401340;28;1813;-44
2022/04/29 12:43:10;;;;;;;;;;;;;;;21.77;29.89;96291.75;10406787;28;1910;-45
2022/04/29 12:48:14;;;;;;;;;;;;;;;21.75;29.89;96298.34;10407013;28;1757;-42
2022/04/29 12:53:18;;;;;;;;;;;;;;;21.71;29.72;96290.19;10384882;28;1761;-45
2022/04/29 12:58:19;;;;;;;;;;;;;;;21.71;29.56;96281.47;10386017;28;1943;-43
2022/04/29 13:03:23;;;;;;;;;;;;;;;21.66;28.83;96278.81;10392232;28;1930;-43
2022/04/29 13:08:24;;;;;;;;;;;;;;;21.66;29.68;96273.53;10405202;28;1865;-41
2022/04/29 13:13:26;;;;;;;;;;;;;;;21.66;29.71;96263.78;10413834;28;1873;-43
2022/04/29 13:18:27;;;;;;;;;;;;;;;21.64;29.61;96251.91;10407630;28;1838;-44
2022/04/29 13:23:27;;;;;;;;;;;;;;;21.61;29.74;96255.09;10387536;28;1914;-44
2022/04/29 13:28:28;;;;;;;;;;;;;;;21.58;29.93;96245.06;10390103;28;1800;-43
2022/04/29 13:33:28;;;;;;;;;;;;;;;21.55;28.97;96245.63;10399639;28;1901;-41
2022/04/29 13:38:28;;;;;;;;;;;;;;;21.58;29.67;96242.44;10396631;28;1832;-43
2022/04/29 13:43:29;;;;;;;;;;;;;;;21.56;29.63;96226.09;10398337;28;1973;-41
2022/04/29 13:48:29;;;;;;;;;;;;;;;21.50;29.31;96224.53;10395614;28;1913;-42
2022/04/29 13:53:30;;;;;;;;;;;;;;;21.38;28.53;96222.19;10396467;28;1860;-42
2022/04/29 13:58:31;;;;;;;;;;;;;;;21.29;28.27;96230.91;10420164;28;1744;-43
2022/04/29 14:03:31;;;;;;;;;;;;;;;21.26;28.64;96234.06;10414440;28;1975;-44
2022/04/29 14:08:31;;;;;;;;;;;;;;;21.21;28.19;96226.16;10419139;28;1791;-44
2022/04/29 14:13:33;;;;;;;;;;;;;;;21.19;28.12;96215.88;10416168;28;1869;-42
2022/04/29 14:18:34;;;;;;;;;;;;;;;21.17;28.38;96211.91;10415459;28;1894;-45
2022/04/29 14:23:35;;;;;;;;;;;;;;;21.13;27.98;96205.59;10399114;28;1969;-45
2022/04/29 14:28:36;;;;;;;;;;;;;;;21.08;27.52;96203.00;10390021;28;1906;-46
2022/04/29 14:33:36;;;;;;;;;;;;;;;21.13;28.05;96195.84;10386470;28;1827;-42
2022/04/29 14:38:37;;;;;;;;;;;;;;;21.16;28.21;96194.53;10386606;28;1776;-44
2022/04/29 14:43:38;;;;;;;;;;;;;;;21.14;28.08;96186.09;10389813;28;1985;-45
2022/04/29 14:48:40;;;;;;;;;;;;;;;21.11;27.46;96181.34;10393144;28;1821;-43
2022/04/29 14:53:40;;;;;;;;;;;;;;;21.06;27.61;96180.31;10415233;28;1810;-44
2022/04/29 14:58:42;;;;;;;;;;;;;;;21.04;27.32;96166.59;10412856;28;1830;-46
2022/04/29 15:03:42;;;;;;;;;;;;;;;20.98;27.14;96180.81;10410342;28;1930;-49
2022/04/29 15:08:43;;;;;;;;;;;;;;;20.94;27.02;96171.06;10398767;28;1761;-44
2022/04/29 15:19:03;;;;;;;;;;;;;;;20.89;27.44;96163.19;10411823;28;2187;-47
2022/04/29 15:24:03;;;;;;;;;;;;;;;20.90;27.48;96164.75;10411719;28;1910;-42
2022/04/29 15:29:04;;;;;;;;;;;;;;;20.97;31.78;96165.28;10419160;28;1819;-47
2022/04/29 15:34:04;;;;;;;;;;;;;;;20.92;33.72;96163.44;10386263;28;1779;-45
2022/04/29 15:39:05;;;;;;;;;;;;;;;20.72;33.53;96155.56;10410712;28;1835;-46
2022/04/29 15:44:06;;;;;;;;;;;;;;;20.61;34.44;96151.34;10394104;28;1914;-44
2022/04/29 15:49:07;;;;;;;;;;;;;;;20.67;36.69;96163.44;10399229;28;1820;-44
2022/04/29 15:54:08;;;;;;;;;;;;;;;20.69;37.25;96158.69;10394428;28;1868;-46
2022/04/29 15:59:10;;;;;;;;;;;;;;;20.77;39.45;96158.16;10397289;28;1949;-42
2022/04/29 16:04:11;;;;;;;;;;;;;;;20.89;40.81;96153.44;10408440;28;1906;-47
2022/04/29 16:09:11;;;;;;;;;;;;;;;20.98;40.66;96151.03;10400732;28;1827;-44
2022/04/29 16:14:12;;;;;;;;;;;;;;;21.00;42.13;96149.72;10390102;28;1802;-44
2022/04/29 16:29:51;;;;;;;;;;;;;;;21.02;42.50;96152.09;10399709;28;1826;-44
2022/04/29 16:34:53;;;;;;;;;;;;;;;21.00;42.99;96147.09;10388410;28;1783;-44
2022/04/29 16:39:53;;;;;;;;;;;;;;;20.99;43.34;96142.88;10371754;28;1773;-45
2022/04/29 16:44:54;;;;;;;;;;;;;;;20.99;43.58;96144.72;10387620;28;1949;-48
2022/04/29 16:49:56;;;;;;;;;;;;;;;21.00;43.49;96149.72;10397096;28;1818;-43
2022/04/29 16:54:56;;;;;;;;;;;;;;;20.98;43.56;96146.56;10395711;28;1818;-43
2022/04/29 16:59:56;;;;;;;;;;;;;;;21.04;42.22;96150.03;10384878;28;1891;-43
2022/04/29 17:04:57;;;;;;;;;;;;;;;21.00;43.68;96152.34;10398295;28;1978;-43
2022/04/29 17:09:57;;;;;;;;;;;;;;;20.97;43.75;96149.47;10389009;28;1800;-45
2022/04/29 17:14:57;;;;;;;;;;;;;;;20.98;44.33;96148.41;10372882;28;1945;-45
2022/04/29 17:19:58;;;;;;;;;;;;;;;20.97;44.31;96152.09;10396386;28;1795;-47
2022/04/29 17:24:58;;;;;;;;;;;;;;;20.95;44.56;96155.00;10385826;28;1930;-47
2022/04/29 17:29:59;;;;;;;;;;;;;;;20.95;44.89;96155.00;10378975;28;1826;-44
2022/04/29 17:35:00;;;;;;;;;;;;;;;20.94;44.46;96166.59;10370105;28;2421;-44
2022/04/29 17:45:20;;;;;;;;;;;;;;;20.95;44.52;96172.66;10400123;28;1914;-44
2022/04/29 17:50:22;;;;;;;;;;;;;;;20.90;44.67;96165.53;10389117;28;1455;-45
2022/04/29 17:55:23;;;;;;;;;;;;;;;20.91;44.77;96168.97;10366293;28;1528;-44
2022/04/29 18:00:23;;;;;;;;;;;;;;;20.89;44.81;96171.88;10370632;28;1764;-43
2022/04/29 18:05:25;;;;;;;;;;;;;;;20.89;45.26;96166.63;10367983;28;1918;-43
2022/04/29 18:10:26;;;;;;;;;;;;;;;20.90;45.53;96168.19;10371393;28;1357;-43
2022/04/29 18:15:26;;;;;;;;;;;;;;;20.95;46.05;96167.38;10392372;28;1691;-42
2022/04/29 18:20:27;;;;;;;;;;;;;;;20.96;45.82;96163.69;10423451;28;1415;-44
2022/04/29 18:25:28;;;;;;;;;;;;;;;20.99;45.91;96163.16;10400464;28;1911;-42
2022/04/29 18:30:31;;;;;;;;;;;;;;;21.00;45.58;96162.91;10396376;28;1545;-42
2022/04/29 18:35:32;;;;;;;;;;;;;;;21.02;46.33;96162.66;10407152;28;1500;-42
2022/04/29 18:40:32;;;;;;;;;;;;;;;21.03;46.09;96164.25;10353716;28;1580;-43
2022/04/29 18:45:33;;;;;;;;;;;;;;;21.04;46.48;96168.47;10414187;28;1930;-44
2022/04/29 18:50:33;;;;;;;;;;;;;;;21.04;45.70;96165.84;10407500;28;1551;-42
2022/04/29 18:55:34;;;;;;;;;;;;;;;21.14;44.18;96171.09;10391666;28;1429;-44
2022/04/29 19:00:34;;;;;;;;;;;;;;;21.16;42.63;96163.69;10408423;28;1782;-44
2022/04/29 19:05:35;;;;;;;;;;;;;;;21.14;43.27;96179.00;10373041;28;1903;-48
2022/04/29 19:10:35;;;;;;;;;;;;;;;21.15;43.23;96177.13;10372083;28;1802;-42
2022/04/29 19:15:35;;;;;;;;;;;;;;;21.14;42.24;96178.19;10398154;28;1895;-46
2022/04/29 19:20:36;;;;;;;;;;;;;;;21.15;42.60;96179.75;10376219;28;1838;-44
2022/04/29 19:25:37;;;;;;;;;;;;;;;21.14;42.24;96168.44;10372250;28;1914;-46
2022/04/29 19:30:38;;;;;;;;;;;;;;;21.14;42.43;96171.09;10382973;28;1811;-43
2022/04/29 19:35:40;;;;;;;;;;;;;;;21.13;42.44;96166.06;10379050;28;1712;-42
2022/04/29 19:40:40;;;;;;;;;;;;;;;21.13;42.83;96169.50;10374967;28;1401;-44
2022/04/29 19:45:40;;;;;;;;;;;;;;;21.11;43.22;96160.28;10399709;28;1995;-46
2022/04/29 19:50:41;;;;;;;;;;;;;;;21.12;43.67;96153.97;10391553;28;1421;-48
2022/04/29 19:55:42;;;;;;;;;;;;;;;21.11;43.76;96155.00;10392246;28;1507;-42
2022/04/29 20:00:43;;;;;;;;;;;;;;;21.11;43.57;96145.25;10395017;28;1426;-42
2022/04/29 20:05:44;;;;;;;;;;;;;;;21.12;43.09;96146.03;10373562;28;1981;-47
2022/04/29 20:10:45;;;;;;;;;;;;;;;21.11;42.78;96142.63;10389127;28;1705;-43
2022/04/29 20:15:47;;;;;;;;;;;;;;;21.11;42.85;96144.44;10377224;28;1479;-44
2022/04/29 20:20:49;;;;;;;;;;;;;;;21.13;42.48;96150.25;10378794;28;1790;-46
2022/04/29 20:25:49;;;;;;;;;;;;;;;21.12;42.70;96141.56;10379498;28;1975;-45
2022/04/29 20:30:50;;;;;;;;;;;;;;;21.12;42.89;96143.41;10391541;28;1787;-44
2022/04/29 20:35:51;;;;;;;;;;;;;;;21.12;42.02;96153.97;10396762;28;1797;-43
2022/04/29 20:46:28;;;;;;;;;;;;;;;21.13;42.02;96151.03;10323633;28;1906;-45
2022/04/29 20:51:29;;;;;;;;;;;;;;;21.17;41.82;96146.03;10384621;28;1826;-42
2022/04/29 20:56:29;;;;;;;;;;;;;;;20.90;38.62;96141.03;10411885;28;1827;-42
2022/04/29 21:01:29;;;;;;;;;;;;;;;20.33;36.04;96140.53;10395945;28;1850;-47
2022/04/29 21:06:30;;;;;;;;;;;;;;;19.90;34.62;96142.53;10397364;28;1981;-51
2022/04/29 21:11:31;;;;;;;;;;;;;;;19.66;33.54;96151.16;10409243;28;1802;-42
2022/04/29 21:16:32;;;;;;;;;;;;;;;19.43;33.30;96147.88;10403773;28;1783;-42
2022/04/29 21:21:33;;;;;;;;;;;;;;;19.47;35.15;96148.94;10403184;28;1798;-44
2022/04/29 21:26:33;;;;;;;;;;;;;;;19.89;37.30;96137.53;10406401;28;1911;-43
2022/04/29 21:31:33;;;;;;;;;;;;;;;20.16;38.22;96143.38;10409573;28;1857;-43
2022/04/29 21:36:34;;;;;;;;;;;;;;;20.30;38.80;96131.31;10404647;28;1873;-46
2022/04/29 21:41:35;;;;;;;;;;;;;;;20.42;39.06;96126.59;10390352;28;1799;-46
2022/04/29 21:46:36;;;;;;;;;;;;;;;20.51;39.19;96126.84;10397878;28;1973;-47
2022/04/29 21:51:36;;;;;;;;;;;;;;;20.58;39.31;96127.38;10401924;28;1799;-44
2022/04/29 21:56:37;;;;;;;;;;;;;;;20.64;39.21;96126.31;10420615;28;1763;-47
2022/04/29 22:01:38;;;;;;;;;;;;;;;20.69;39.39;96111.28;10412166;28;1784;-45
2022/04/29 22:06:38;;;;;;;;;;;;;;;20.75;39.34;96106.81;10394552;28;1977;-46
2022/04/29 22:11:38;;;;;;;;;;;;;;;20.80;39.68;96106.78;10383534;28;1869;-44
2022/04/29 22:16:39;;;;;;;;;;;;;;;20.84;39.67;96106.00;10401890;28;1896;-42
2022/04/29 22:21:40;;;;;;;;;;;;;;;20.88;39.49;96114.94;10402818;28;1878;-43
2022/04/29 22:26:42;;;;;;;;;;;;;;;20.91;39.61;96109.16;10413213;28;1898;-44
2022/04/29 22:31:42;;;;;;;;;;;;;;;20.94;39.42;96108.63;10410322;28;1867;-43
2022/04/29 22:36:42;;;;;;;;;;;;;;;20.98;39.60;96103.59;10409898;28;1786;-43
2022/04/29 22:41:45;;;;;;;;;;;;;;;21.00;39.61;96099.63;10415008;28;1914;-45
2022/04/29 22:46:46;;;;;;;;;;;;;;;21.03;39.46;96101.00;10398283;28;1747;-45
2022/04/29 22:51:47;;;;;;;;;;;;;;;21.05;39.54;96094.41;10416426;28;1910;-44
2022/04/29 22:56:47;;;;;;;;;;;;;;;21.07;39.30;96088.84;10401164;28;1894;-43
2022/04/29 23:01:48;;;;;;;;;;;;;;;21.10;38.76;96084.91;10384541;28;1914;-43
2022/04/29 23:06:48;;;;;;;;;;;;;;;21.11;38.80;96089.09;10391757;28;1811;-46
2022/04/29 23:11:49;;;;;;;;;;;;;;;21.11;38.59;96092.53;10416450;28;1910;-44
2022/04/29 23:16:51;;;;;;;;;;;;;;;21.12;38.39;96083.56;10417365;28;1803;-47
2022/04/29 23:21:52;;;;;;;;;;;;;;;21.13;38.73;96076.44;10414878;28;1977;-45
2022/04/29 23:26:53;;;;;;;;;;;;;;;21.13;38.53;96073.81;10406935;28;1807;-48
2022/04/29 23:31:54;;;;;;;;;;;;;;;21.13;38.30;96076.44;10417156;28;1834;-49
2022/04/29 23:36:54;;;;;;;;;;;;;;;21.12;38.46;96070.41;10391125;28;1755;-44
2022/04/29 23:41:55;;;;;;;;;;;;;;;21.14;38.11;96070.91;10400895;28;1983;-46
2022/04/29 23:46:57;;;;;;;;;;;;;;;21.15;37.96;96061.13;10416980;28;1859;-46
2022/04/29 23:52:10;;;;;;;;;;;;;;;21.16;37.98;96058.25;10391581;28;1884;-48
2022/04/29 23:57:11;;;;;;;;;;;;;;;21.15;37.33;96056.66;10378021;28;1831;-44
